KAFN/AFN METAR and TAF weather

Enter ICAO airport designator
Station Type Date Time Source
KAFN METAR 2020/09/18 07:28 UTC NOAA

KAFN 180728Z AUTO 01003KT 10SM OVC033 14/09 A3001 RMK AO2 T01390094


Station Type Date Time Source
KAFN Decoded METAR 2020/09/18 07:28 UTC NOAA

JAFFREY MUNI-SILVER RANCH, NH, United States (KAFN) 42-48N 72-00W 313M
Sep 18, 2020 - 03:28 AM EDT / 2020.09.18 0728 UTC
Wind: from the N (010 degrees) at 3 MPH (3 KT):0
Visibility: 10 mile(s):0
Sky conditions: overcast
Temperature: 57.0 F (13.9 C)
Dew Point: 48.9 F (9.4 C)
Relative Humidity: 74%
Pressure (altimeter): 30.01 in. Hg (1016 hPa)
ob: KAFN 180728Z AUTO 01003KT 10SM OVC033 14/09 A3001 RMK AO2 T01390094
cycle: 7

Station Type Date Time Source
KAFN TAF UTC NOAA

Error!

Example: see airport list